Latest Coastal Weather Observations for King Island Airport

IDV60701

Issued at 10:35 pm EDT Monday 20 October 2014 (issued every 10 minutes, with the page automatically refreshed every 10 minutes)

About coastal observations | Map of coastal stations | Coastal observations for VIC | Marine services | Other Formats
Station Details ID: 098017 Name: KING ISLAND AIRPORT Lat: -39.88 Lon: 143.88 Height: 37.0 m
Data from the previous 72 hours. | See also: Recent months at King Island Airport
Date/Time
EDT
Temp

°C
Wind Pressure Rain
since 9am
mm
Weather Cloud Vis
km
Sea
Height
m
Swell
Dir
 
Speed
knots
Gust
knots
hPa Trend Height
m
Period
s
Dir
20/10:30pm 10.6 E 14 21 1031.6 - 0.0 - - 10 - - - -
20/10:00pm 10.2 E 12 17 1031.8 - 0.0 - - 10 - - - -
20/09:30pm 9.6 E 11 15 1032.1 - 0.0 - - 10 - - - -
20/09:00pm 8.9 E 9 12 1032.1 - 0.0 - - 10 - - - -
20/08:30pm 9.1 E 9 10 1031.8 - 0.0 - - 10 - - - -
20/08:00pm 9.5 E 9 12 1031.7 - 0.0 - - 10 - - - -
20/07:30pm 10.4 E 13 16 1031.5 - 0.0 - - 10 - - - -
20/07:00pm 11.1 E 16 21 1031.5 - 0.0 - - - - - - -
20/06:30pm 11.8 E 17 21 1031.6 - 0.0 - - - - - - -
20/06:00pm 12.3 E 17 23 1031.6 - 0.0 - - - - - - -
20/05:30pm 13.0 E 15 20 1032.0 - 0.0 - - - - - - -
20/05:00pm 12.6 E 17 21 1032.1 - 0.0 - - - - - - -
20/04:30pm 12.7 E 16 20 1032.2 - 0.0 - - - - - - -
20/04:00pm 12.6 ESE 16 22 1032.3 - 0.0 - - - - - - -
20/03:30pm 13.1 ESE 16 21 1032.3 - 0.0 - - - - - - -
20/03:00pm 13.2 E 16 20 1032.4 - 0.0 - - - - - - -
20/02:30pm 13.6 E 15 21 1032.6 - 0.0 - - - - - - -
20/02:00pm 13.5 E 17 22 1032.8 - 0.0 - Partly cloudy - - - - -
20/01:30pm 14.1 E 16 21 1032.8 - 0.0 - Partly cloudy - - - - -
20/01:00pm 13.5 E 14 19 1033.0 - 0.0 - Partly cloudy - - - - -
20/12:30pm 13.4 E 15 20 1033.3 - 0.0 - - - - - - -
20/12:00pm 13.1 E 15 19 1033.5 - 0.0 - - - - - - -
20/11:30am 12.5 SE 12 19 1033.8 - 0.0 - - - - - - -
20/11:00am 12.5 ESE 14 19 1033.9 - 0.0 - - - - - - -
20/10:30am 12.0 SE 16 22 1033.9 - 0.0 - - - - - - -
20/10:00am 11.8 ESE 16 21 1033.7 - 0.0 - - - - - - -
20/09:30am 11.5 ESE 16 20 1033.8 - 0.0 - - - - - - -
20/09:00am 10.8 ESE 15 20 1033.6 - 0.2 - - - - - - -
20/08:30am 10.3 ESE 12 18 1033.4 - 0.2 - - - - - - -
20/08:00am 9.9 SE 9 13 1033.2 - 0.2 - Partly cloudy - - - - -
20/07:30am 8.4 SE 6 9 1032.9 - 0.2 - Cloudy 10 - - - -
20/07:00am 7.0 SE 5 6 1032.5 - 0.2 - Cloudy 10 - - - -
20/06:30am 7.0 SSE 7 8 1032.1 - 0.2 - Cloudy 10 - - - -
20/06:00am 5.0 SSE 6 7 1031.4 - 0.2 - - 10 - - - -
20/05:30am 5.2 SSE 7 8 1030.8 - 0.2 - - 10 - - - -
20/05:00am 3.9 SE 5 7 1030.7 - 0.2 - - 10 - - - -
20/04:30am 5.1 CALM 0 3 1030.9 - 0.2 - Partly cloudy 10 - - - -
20/04:00am 6.3 SSE 5 5 1030.8 - 0.2 - Partly cloudy 10 - - - -
20/03:30am 6.7 SSE 4 6 1030.5 - 0.2 - Partly cloudy 10 - - - -
20/03:00am 5.6 SE 5 7 1030.3 - 0.2 - - 10 - - - -
20/02:30am 5.8 SSE 5 7 1030.3 - 0.2 - Partly cloudy 10 - - - -
20/02:00am 6.0 SSE 6 7 1030.4 - 0.2 - - 10 - - - -
20/01:30am 6.2 SSE 6 8 1030.5 - 0.2 - Partly cloudy 10 - - - -
20/01:00am 6.9 SSE 6 9 1030.6 - 0.2 - - 10 - - - -
20/12:30am 8.1 S 8 13 1030.6 - 0.2 - Partly cloudy 10 - - - -
20/12:00am 8.6 S 8 11 1029.9 - 0.2 - - 10 - - - -
 
Date/Time
EDT
Temp

°C
Wind Pressure Rain
since 9am
mm
Weather Cloud Vis
km
Sea
Height
m
Swell
Dir
 
Speed
knots
Gust
knots
hPa Trend Height
m
Period
s
Dir
19/11:30pm 8.7 S 6 10 1029.5 - 0.2 - - 10 - - - -
19/11:00pm 8.7 S 7 9 1029.6 - 0.2 - Partly cloudy 10 - - - -
19/10:30pm 10.0 S 10 15 1029.1 - 0.2 - Partly cloudy 10 - - - -
19/10:00pm 10.1 S 9 17 1028.9 - 0.2 - Partly cloudy 10 - - - -
19/09:30pm 10.2 S 13 19 1028.5 - 0.2 - Partly cloudy 10 - - - -
19/09:00pm 9.8 SSW 14 21 1027.9 - 0.2 Drizzle Mostly cloudy 10 - - - -
19/08:39pm 11.1 SSW 18 30 1027.4 - 0.2 - Partly cloudy 10 - - - -
19/08:30pm 11.0 SSW 17 22 1027.1 - 0.2 - Partly cloudy 10 - - - -
19/08:00pm 11.1 SSW 17 23 1026.1 - 0.2 - Partly cloudy 10 - - - -
19/07:30pm 10.8 SSW 18 26 1025.7 - 0.0 - Partly cloudy 10 - - - -
19/07:08pm 10.3 SSW 18 28 1025.4 - 0.0 - Partly cloudy 10 - - - -
19/07:00pm 10.3 SSW 17 26 1025.2 - 0.0 - Partly cloudy 10 - - - -
19/06:53pm 10.0 SSW 16 26 1024.5 - 0.0 - Partly cloudy 10 - - - -
19/06:36pm 9.8 SSW 17 22 1024.4 - 0.0 - Partly cloudy 10 - - - -
19/06:30pm 10.1 SSW 16 24 1024.1 - 0.0 - Partly cloudy 10 - - - -
19/06:23pm 10.4 SSW 19 25 1024.2 - 0.0 - Partly cloudy 10 - - - -
19/06:00pm 10.4 SSW 19 26 1024.1 - 0.0 - Cloudy 10 - - - -
19/05:30pm 11.1 SSW 19 26 1023.5 - 0.0 - Cloudy 10 - - - -
19/05:27pm 11.2 SSW 20 26 1023.3 - 0.0 - Cloudy 10 - - - -
19/05:04pm 12.1 S 17 23 1022.7 - 0.0 - Partly cloudy 10 - - - -
19/05:00pm 12.4 SSW 17 23 1022.2 - 0.0 - Partly cloudy 10 - - - -
19/04:30pm 13.6 SSW 21 28 1022.6 - 0.0 - Partly cloudy 10 - - - -
19/04:07pm 13.6 SW 18 24 1022.1 - 0.0 - Partly cloudy 10 - - - -
19/04:00pm 13.9 SW 16 20 1022.0 - 0.0 - Partly cloudy 10 - - - -
19/03:55pm 14.1 SW 16 21 1021.8 - 0.0 - Partly cloudy 10 - - - -
19/03:46pm 14.1 SW 15 20 1021.4 - 0.0 - Partly cloudy 10 - - - -
19/03:35pm 14.6 SW 16 20 1021.4 - 0.0 - Partly cloudy 10 - - - -
19/03:30pm 14.6 SW 15 18 1020.7 - 0.0 - Partly cloudy 10 - - - -
19/03:00pm 14.3 SW 16 19 1021.1 - 0.0 - Cloudy 10 - - - -
19/02:30pm 14.9 SSW 9 11 1020.3 - 0.0 - Partly cloudy 10 - - - -
19/02:00pm 15.0 SW 16 21 1020.8 - 0.0 - Partly cloudy 10 - - - -
19/01:36pm 15.6 SW 16 21 1020.5 - 0.0 - Partly cloudy - - - - -
19/01:30pm 15.6 SW 16 22 1020.6 - 0.0 - Partly cloudy 10 - - - -
19/01:12pm 14.8 SW 15 20 1020.8 - 0.0 - Partly cloudy 10 - - - -
19/01:00pm 14.9 SW 12 18 1020.6 - 0.0 - Partly cloudy 10 - - - -
19/12:46pm 14.8 SW 13 19 1020.7 - 0.0 - Partly cloudy 10 - - - -
19/12:30pm 14.4 WSW 13 17 1020.8 - 0.0 - Partly cloudy 10 - - - -
19/12:16pm 14.9 SW 14 18 1020.8 - 0.0 - Partly cloudy 10 - - - -
19/12:00pm 14.8 WSW 13 17 1020.8 - 0.0 - Cloudy 10 - - - -
19/11:30am 14.9 WSW 10 13 1020.5 - 0.0 - Partly cloudy 10 - - - -
19/11:00am 14.1 WSW 9 13 1020.6 - 0.0 - Partly cloudy 10 - - - -
19/10:30am 14.1 WSW 8 11 1020.5 - 0.0 - Partly cloudy 10 - - - -
19/10:00am 14.1 WSW 9 13 1020.2 - 0.0 - Cloudy 10 - - - -
19/09:30am 14.0 WSW 9 12 1020.2 - 0.0 - Cloudy 10 - - - -
19/09:00am 13.9 WSW 9 10 1020.0 - 0.4 - Cloudy 10 - - - -
19/08:49am 13.8 W 7 8 1019.8 - 0.4 - Partly cloudy 10 - - - -
19/08:30am 13.4 W 6 9 1019.7 - 0.4 - Partly cloudy 10 - - - -
19/08:27am 13.4 W 7 9 1019.6 - 0.4 - Partly cloudy 10 - - - -
19/08:00am 13.3 WSW 6 9 1019.5 - 0.4 - Partly cloudy 10 - - - -
19/07:30am 12.9 W 6 8 1019.2 - 0.4 - Partly cloudy 10 - - - -
19/07:00am 13.0 W 8 12 1019.4 - 0.4 - Partly cloudy 10 - - - -
19/06:52am 12.9 W 9 12 1019.3 - 0.4 - Partly cloudy 10 - - - -
19/06:44am 12.7 W 7 9 1019.1 - 0.4 - Partly cloudy 10 - - - -
19/06:30am 12.9 W 8 12 1019.0 - 0.4 - Partly cloudy 10 - - - -
19/06:00am 12.9 W 10 14 1018.9 - 0.4 - Cloudy 10 - - - -
19/05:30am 13.2 W 10 13 1018.5 - 0.4 - Cloudy 10 - - - -
19/05:00am 13.0 W 10 14 1018.6 - 0.4 - Cloudy 10 - - - -
19/04:30am 13.2 W 9 14 1018.5 - 0.4 - Cloudy 10 - - - -
19/04:00am 13.1 W 10 15 1018.5 - 0.4 - Partly cloudy 10 - - - -
19/03:30am 13.5 W 9 14 1018.7 - 0.4 - Cloudy 9 - - - -
19/03:00am 13.8 W 10 15 1018.8 - 0.4 - Cloudy 8 - - - -
19/02:30am 14.3 W 9 14 1018.9 - 0.4 - Partly cloudy 10 - - - -
19/02:25am 14.2 WNW 8 11 1018.9 - 0.4 - Partly cloudy 10 - - - -
19/02:00am 13.9 WNW 8 9 1018.9 - 0.4 - - 10 - - - -
19/01:30am 14.1 WNW 8 10 1018.9 - 0.4 - - 10 - - - -
19/01:00am 14.3 NNW 7 9 1018.7 - 0.4 - - 10 - - - -
19/12:30am 14.9 N 9 11 1018.2 - 0.4 - - 10 - - - -
19/12:00am 15.7 NNW 11 15 1018.5 - 0.4 - - 10 - - - -
 
Date/Time
EDT
Temp

°C
Wind Pressure Rain
since 9am
mm
Weather Cloud Vis
km
Sea
Height
m
Swell
Dir
 
Speed
knots
Gust
knots
hPa Trend Height
m
Period
s
Dir
18/11:30pm 16.5 N 13 17 1018.5 - 0.4 - - 10 - - - -
18/11:00pm 16.8 NNW 18 26 1018.9 - 0.4 - - 10 - - - -
18/10:46pm 17.8 NW 20 30 1018.3 - 0.4 - - 10 - - - -
18/10:44pm 17.4 WNW 21 30 1018.9 - 0.4 - - 10 - - - -
18/10:30pm 19.3 N 15 20 1017.8 - 0.4 - - 10 - - - -
18/10:00pm 18.6 NNE 13 17 1018.0 - 0.4 - - 10 - - - -
18/09:30pm 18.4 NNE 16 21 1017.8 - 0.4 - - 10 - - - -
18/09:00pm 17.5 NNE 15 18 1018.0 - 0.4 - Mostly cloudy 10 - - - -
18/08:30pm 16.7 NNE 15 19 1017.8 - 0.4 - - 10 - - - -
18/08:00pm 16.1 NE 14 18 1018.1 - 0.4 - - 10 - - - -
18/07:30pm 16.2 NE 10 12 1018.8 - 0.4 - - 10 - - - -
18/07:00pm 16.5 NE 10 14 1019.1 - 0.4 - - 10 - - - -
18/06:30pm 16.5 NE 10 14 1019.5 - 0.4 - - 10 - - - -
18/06:00pm 16.8 NE 9 12 1019.9 - 0.4 - Cloudy 10 - - - -
18/05:30pm 16.2 NE 9 14 1020.1 - 0.4 - - 10 - - - -
18/05:00pm 16.2 NE 8 12 1020.3 - 0.4 - - 10 - - - -
18/04:30pm 16.7 NE 11 15 1020.6 - 0.4 - - 10 - - - -
18/04:00pm 16.2 NE 9 11 1020.7 - 0.4 - - 10 - - - -
18/03:30pm 15.9 NE 11 15 1020.9 - 0.4 - - 10 - - - -
18/03:00pm 15.8 NE 12 15 1021.0 - 0.4 - Mostly cloudy 10 - - - -
18/02:30pm 15.6 NE 13 19 1021.1 - 0.4 - Partly cloudy 10 - - - -
18/02:00pm 15.1 NE 13 16 1021.6 - 0.4 - Partly cloudy 10 - - - -
18/01:30pm 14.4 ENE 9 12 1022.4 - 0.4 - Partly cloudy 10 - - - -
18/01:00pm 14.7 NE 7 9 1023.6 - 0.0 - Partly cloudy 10 - - - -
18/12:30pm 15.2 NNE 13 16 1023.9 - 0.0 - Partly cloudy 10 - - - -
18/12:00pm 15.3 NE 12 17 1023.3 - 0.0 - Mostly cloudy 10 - - - -
18/11:30am 15.3 NNE 15 20 1023.8 - 0.0 - - 10 - - - -
18/11:00am 15.3 NE 17 21 1024.0 - 0.0 - Partly cloudy 10 - - - -
18/10:30am 15.0 NNE 13 18 1024.5 - 0.0 - Partly cloudy 10 - - - -
18/10:00am 14.7 NE 13 19 1024.1 - 0.0 - Partly cloudy 10 - - - -
18/09:30am 14.3 ENE 13 17 1024.2 - 0.0 - Partly cloudy 10 - - - -
18/09:00am 13.4 ENE 13 17 1023.9 - 0.0 - Mostly cloudy 10 - - - -
18/08:30am 13.1 NE 11 16 1024.8 - 0.0 - Partly cloudy 10 - - - -
18/08:00am 12.3 NE 8 13 1025.1 - 0.0 - - 10 - - - -
18/07:30am 10.9 ENE 9 11 1024.8 - 0.0 - - 10 - - - -
18/07:00am 9.7 ENE 7 8 1024.8 - 0.0 - Partly cloudy - - - - -
18/06:30am 9.5 E 9 11 1024.1 - 0.0 - - - - - - -
18/06:00am 9.5 ENE 8 11 1024.1 - 0.0 - - - - - - -
18/05:30am 8.0 E 7 8 1024.1 - 0.0 - - 10 - - - -
18/05:00am 7.6 E 7 8 1024.2 - 0.0 - - 10 - - - -
18/04:30am 8.5 ENE 7 8 1024.3 - 0.0 - - 10 - - - -
18/04:00am 8.7 ENE 5 7 1024.4 - 0.0 - - 10 - - - -
18/03:30am 8.9 ENE 7 10 1024.2 - 0.0 - - 10 - - - -
18/03:00am 8.5 ENE 8 10 1024.2 - 0.0 - - 10 - - - -
18/02:30am 8.1 ENE 6 8 1024.8 - 0.0 - - 10 - - - -
18/02:00am 7.7 ENE 7 8 1024.9 - 0.0 - - 10 - - - -
18/01:30am 7.8 ENE 6 7 1025.3 - 0.0 - - 10 - - - -
18/01:00am 7.7 ENE 7 9 1025.2 - 0.0 - - 10 - - - -
18/12:30am 6.9 ENE 4 5 1025.9 - 0.0 - - 10 - - - -
18/12:00am 6.9 E 6 6 1026.1 - 0.0 - - 10 - - - -
 
Date/Time
EDT
Temp

°C
Wind Pressure Rain
since 9am
mm
Weather Cloud Vis
km
Sea
Height
m
Swell
Dir
 
Speed
knots
Gust
knots
hPa Trend Height
m
Period
s
Dir
17/11:30pm 6.4 E 7 7 1026.1 - 0.0 - - 10 - - - -
17/11:00pm 7.3 ESE 6 7 1026.4 - 0.0 - - 10 - - - -

Other Formats:

Comma delimited format used in spreadsheet applications
http://www.bom.gov.au/fwo/IDV60701/IDV60701.94850.axf

JavaScript Object Notation format (JSON) in row-major order
http://www.bom.gov.au/fwo/IDV60701/IDV60701.94850.json